This is the latest recevied weather packets stored in our database for station/object HB9EKO-12. If no packets are shown the sender has not sent any weather packets the latest 10 day(s).
| Time | Temp. | Humidity | Pressure | Rain* | Wind** | Luminosity | Snow |
|---|---|---|---|---|---|---|---|
| 1777251942 | 10° C | 55% | 1022 hPa | - | - | - | - |
| 1777251036 | 10° C | 55% | 1022 hPa | - | - | - | - |
| 1777250131 | 10° C | 54% | 1022 hPa | - | - | - | - |
| 1777249226 | 10° C | 52% | 1022 hPa | - | - | - | - |
| 1777248321 | 8.89° C | 56% | 1022 hPa | - | - | - | - |
| 1777247416 | 11.11° C | 48% | 1022 hPa | - | - | - | - |
| 1777246511 | 10.56° C | 48% | 1022 hPa | - | - | - | - |
| 1777245605 | 10° C | 47% | 1022 hPa | - | - | - | - |
| 1777244700 | 10.56° C | 47% | 1022 hPa | - | - | - | - |
| 1777243795 | 11.11° C | 48% | 1022 hPa | - | - | - | - |
| 1777242889 | 11.11° C | 46% | 1022 hPa | - | - | - | - |
| 1777241984 | 12.78° C | 41% | 1021 hPa | - | - | - | - |
| 1777241079 | 12.78° C | 39% | 1022 hPa | - | - | - | - |
| 1777240174 | 12.78° C | 38% | 1022 hPa | - | - | - | - |
| 1777239269 | 13.33° C | 39% | 1022 hPa | - | - | - | - |
| 1777238363 | 13.33° C | 37% | 1021 hPa | - | - | - | - |
| 1777237458 | 13.89° C | 37% | 1021 hPa | - | - | - | - |
| 1777236553 | 14.44° C | 38% | 1021 hPa | - | - | - | - |
| 1777235647 | 14.44° C | 37% | 1021 hPa | - | - | - | - |
| 1777234742 | 14.44° C | 35% | 1021 hPa | - | - | - | - |
| 1777233837 | 15.56° C | 31% | 1021 hPa | - | - | - | - |
| 1777232932 | 15° C | 32% | 1021 hPa | - | - | - | - |
| 1777232027 | 15.56° C | 32% | 1021 hPa | - | - | - | - |
| 1777231121 | 17.22° C | 30% | 1021 hPa | - | - | - | - |
| 1777230216 | 19.44° C | 26% | 1020 hPa | - | - | - | - |
* Rain since midnight (hover to see other rain measurements)
** Current wind speed in m/s (hover to see current wind gust speed)